Time;durP1;ratioP1;P1;durP2;ratioP2;P2;SDS_P1;SDS_P2;PMS_P1;PMS_P2;Temp;Humidity;BMP_temperature;BMP_pressure;BME280_temperature;BME280_humidity;BME280_pressure;Samples;Min_cycle;Max_cycle;Signal;HPM_P1;HPM_P2
2023/04/20 00:02:01;;;;;;;;;;;6.20;68.20;;;;;;5025523;28;20662;-80
2023/04/20 00:04:27;;;;;;;;;;;6.20;68.20;;;;;;5033921;28;19917;-81
2023/04/20 00:06:52;;;;;;;;;;;6.10;68.20;;;;;;5030049;28;19923;-81
2023/04/20 00:09:18;;;;;;;;;;;6.10;68.20;;;;;;5027641;28;19952;-81
2023/04/20 00:11:44;;;;;;;;;;;6.10;68.30;;;;;;5045765;28;19917;-81
2023/04/20 00:14:09;;;;;;;;;;;6.10;68.30;;;;;;5008480;28;20413;-80
2023/04/20 00:16:35;;;;;;;;;;;6.00;68.20;;;;;;5024521;28;19920;-79
2023/04/20 00:19:00;;;;;;;;;;;6.00;68.30;;;;;;5028848;28;19935;-82
2023/04/20 00:21:26;;;;;;;;;;;6.00;68.40;;;;;;5018265;28;20771;-80
2023/04/20 00:23:52;;;;;;;;;;;6.00;68.40;;;;;;5026352;28;19921;-79
2023/04/20 00:26:17;;;;;;;;;;;6.00;68.50;;;;;;5047863;28;19956;-81
2023/04/20 00:28:43;;;;;;;;;;;5.90;68.40;;;;;;5023439;28;19921;-81
2023/04/20 00:31:08;;;;;;;;;;;5.90;68.40;;;;;;5027450;28;19932;-82
2023/04/20 00:33:34;;;;;;;;;;;5.90;68.40;;;;;;5026320;28;20011;-82
2023/04/20 00:35:59;;;;;;;;;;;5.90;68.50;;;;;;5027387;28;20244;-82
2023/04/20 00:38:25;;;;;;;;;;;5.90;68.50;;;;;;5006021;28;19925;-83
2023/04/20 00:40:52;;;;;;;;;;;5.90;68.60;;;;;;5018923;28;19924;-82
2023/04/20 00:43:18;;;;;;;;;;;5.80;68.50;;;;;;5028746;28;19964;-82
2023/04/20 00:45:44;;;;;;;;;;;5.80;68.50;;;;;;5043101;28;20407;-82
2023/04/20 00:48:10;;;;;;;;;;;5.80;68.60;;;;;;5045153;28;20299;-82
2023/04/20 00:50:35;;;;;;;;;;;5.80;68.60;;;;;;5004848;28;19917;-81
2023/04/20 00:53:01;;;;;;;;;;;5.70;68.50;;;;;;5028832;28;19976;-83
2023/04/20 00:55:26;;;;;;;;;;;5.70;68.60;;;;;;5013700;28;20307;-81
2023/04/20 00:57:52;;;;;;;;;;;5.70;68.70;;;;;;5013886;28;19933;-81
2023/04/20 01:00:17;;;;;;;;;;;5.70;68.70;;;;;;5023261;28;20399;-81
2023/04/20 01:02:43;;;;;;;;;;;5.70;68.70;;;;;;5020068;28;19921;-82
2023/04/20 01:05:09;;;;;;;;;;;5.70;68.70;;;;;;5019469;28;19925;-81
2023/04/20 01:07:35;;;;;;;;;;;5.70;68.70;;;;;;5020440;28;19917;-82
2023/04/20 01:10:01;;;;;;;;;;;5.70;68.70;;;;;;5020368;28;19932;-81
2023/04/20 01:12:26;;;;;;;;;;;5.70;68.70;;;;;;5020170;28;19921;-81
2023/04/20 01:14:51;;;;;;;;;;;5.70;68.70;;;;;;5018042;28;19921;-82
2023/04/20 01:17:19;;;;;;;;;;;5.70;68.80;;;;;;5035769;28;19951;-81
2023/04/20 01:19:44;;;;;;;;;;;5.70;68.80;;;;;;5021770;28;19952;-83
2023/04/20 01:22:17;;;;;;;;;;;5.70;68.80;;;;;;5015923;28;20150;-81
2023/04/20 01:24:42;;;;;;;;;;;5.70;68.80;;;;;;5019981;28;19953;-81
2023/04/20 01:27:07;;;;;;;;;;;5.70;68.80;;;;;;5020797;28;20069;-81
2023/04/20 01:29:33;;;;;;;;;;;5.70;68.80;;;;;;5018997;28;20355;-81
2023/04/20 01:31:59;;;;;;;;;;;5.70;68.80;;;;;;5004900;28;19924;-81
2023/04/20 01:34:25;;;;;;;;;;;5.70;68.80;;;;;;5019550;28;19924;-83
2023/04/20 01:36:50;;;;;;;;;;;5.70;68.80;;;;;;5016341;28;19936;-82
2023/04/20 01:39:16;;;;;;;;;;;5.70;68.80;;;;;;5005262;28;19922;-82
2023/04/20 01:41:41;;;;;;;;;;;5.70;68.80;;;;;;5014101;28;19940;-82
2023/04/20 01:44:06;;;;;;;;;;;5.70;68.80;;;;;;5022539;28;19963;-82
2023/04/20 01:46:32;;;;;;;;;;;5.70;69.70;;;;;;5022106;28;20570;-83
2023/04/20 01:48:57;;;;;;;;;;;5.70;68.80;;;;;;5018521;28;19975;-82
2023/04/20 01:51:23;;;;;;;;;;;5.70;68.80;;;;;;5023024;28;19917;-81
2023/04/20 01:53:48;;;;;;;;;;;5.70;68.80;;;;;;5016812;28;20016;-84
2023/04/20 01:56:14;;;;;;;;;;;5.70;68.80;;;;;;5010340;28;19933;-81
2023/04/20 01:58:39;;;;;;;;;;;5.80;68.90;;;;;;5023446;28;19921;-83
2023/04/20 02:01:05;;;;;;;;;;;5.80;68.90;;;;;;5031279;28;19913;-79
2023/04/20 02:03:30;;;;;;;;;;;5.80;68.90;;;;;;5014644;28;19963;-81
2023/04/20 02:05:56;;;;;;;;;;;5.80;68.80;;;;;;5011995;28;19947;-83
2023/04/20 02:08:21;;;;;;;;;;;5.80;68.80;;;;;;5028381;28;19917;-81
2023/04/20 02:10:47;;;;;;;;;;;5.80;68.90;;;;;;5011827;28;20280;-82
2023/04/20 02:13:12;;;;;;;;;;;5.80;68.80;;;;;;5020471;28;19952;-83
2023/04/20 02:15:38;;;;;;;;;;;5.80;68.80;;;;;;5024255;28;20551;-81
2023/04/20 02:18:03;;;;;;;;;;;5.90;68.90;;;;;;5020113;28;19925;-82
2023/04/20 02:20:29;;;;;;;;;;;5.80;68.80;;;;;;5004972;28;19921;-81
2023/04/20 02:22:55;;;;;;;;;;;5.80;68.90;;;;;;5020784;28;19973;-83
2023/04/20 02:25:20;;;;;;;;;;;5.90;68.90;;;;;;5019409;28;19918;-83
2023/04/20 02:27:46;;;;;;;;;;;5.90;68.90;;;;;;5022591;28;19921;-81
2023/04/20 02:30:11;;;;;;;;;;;5.90;68.90;;;;;;4989887;28;19921;-81
2023/04/20 02:32:37;;;;;;;;;;;5.90;68.90;;;;;;5021945;28;19922;-83
2023/04/20 02:35:03;;;;;;;;;;;5.90;68.90;;;;;;5008396;28;20551;-81
2023/04/20 02:37:28;;;;;;;;;;;5.90;68.90;;;;;;5024433;28;20012;-81
2023/04/20 02:39:54;;;;;;;;;;;5.90;68.90;;;;;;5027047;28;19924;-81
2023/04/20 02:42:19;;;;;;;;;;;5.90;68.90;;;;;;5003319;28;19933;-81
2023/04/20 02:44:45;;;;;;;;;;;6.00;68.90;;;;;;5020822;28;19918;-81
2023/04/20 02:47:10;;;;;;;;;;;6.00;69.00;;;;;;5005486;28;20651;-80
2023/04/20 02:49:36;;;;;;;;;;;6.00;68.90;;;;;;5008558;28;19921;-82
2023/04/20 02:52:01;;;;;;;;;;;6.00;68.90;;;;;;5021127;28;19928;-81
2023/04/20 02:54:27;;;;;;;;;;;6.00;68.90;;;;;;5026038;28;19984;-81
2023/04/20 02:56:52;;;;;;;;;;;6.00;68.90;;;;;;5028463;28;19924;-82
2023/04/20 02:59:18;;;;;;;;;;;6.00;68.90;;;;;;5030729;28;19925;-80
2023/04/20 03:01:43;;;;;;;;;;;6.00;68.90;;;;;;5025084;28;19923;-81
2023/04/20 03:04:09;;;;;;;;;;;6.00;69.00;;;;;;5012794;28;19940;-83
2023/04/20 03:06:35;;;;;;;;;;;6.00;68.90;;;;;;5028197;28;19917;-81
2023/04/20 03:09:01;;;;;;;;;;;6.00;69.00;;;;;;5028575;28;19921;-83
2023/04/20 03:11:26;;;;;;;;;;;6.00;68.90;;;;;;5029860;28;20557;-82
2023/04/20 03:13:52;;;;;;;;;;;6.10;69.00;;;;;;5025469;28;19920;-81
2023/04/20 03:16:17;;;;;;;;;;;6.10;69.00;;;;;;5026587;28;20399;-82
2023/04/20 03:18:42;;;;;;;;;;;6.00;68.90;;;;;;5012123;28;19921;-81
2023/04/20 03:21:08;;;;;;;;;;;6.10;69.00;;;;;;5045499;28;19931;-81
2023/04/20 03:23:33;;;;;;;;;;;6.10;69.00;;;;;;5028634;28;19924;-81
2023/04/20 03:26:00;;;;;;;;;;;6.10;69.00;;;;;;5046254;28;20498;-80
2023/04/20 03:28:25;;;;;;;;;;;6.10;69.00;;;;;;5025764;28;19943;-82
2023/04/20 03:30:51;;;;;;;;;;;6.10;69.00;;;;;;5027263;28;20180;-81
2023/04/20 03:33:16;;;;;;;;;;;6.10;69.00;;;;;;5027205;28;19943;-81
2023/04/20 03:35:42;;;;;;;;;;;6.10;69.00;;;;;;5045625;28;20090;-82
2023/04/20 03:38:08;;;;;;;;;;;6.10;69.00;;;;;;5030258;28;19932;-81
2023/04/20 03:40:33;;;;;;;;;;;6.10;69.00;;;;;;5027767;28;19935;-81
2023/04/20 03:42:59;;;;;;;;;;;6.10;69.10;;;;;;5028649;28;19916;-81
2023/04/20 03:45:24;;;;;;;;;;;6.10;69.00;;;;;;5044039;28;19921;-80
2023/04/20 03:47:50;;;;;;;;;;;6.20;69.00;;;;;;5028023;28;20433;-81
2023/04/20 03:50:15;;;;;;;;;;;6.20;69.00;;;;;;5028748;28;19917;-82
2023/04/20 03:52:41;;;;;;;;;;;6.20;69.00;;;;;;5044218;28;19925;-82
2023/04/20 03:55:06;;;;;;;;;;;6.20;69.00;;;;;;5021512;28;20410;-82
2023/04/20 03:57:32;;;;;;;;;;;6.20;69.00;;;;;;5030761;28;19925;-81
2023/04/20 03:59:57;;;;;;;;;;;6.20;69.10;;;;;;5028571;28;20497;-82
2023/04/20 04:02:23;;;;;;;;;;;6.20;69.00;;;;;;5027431;28;19920;-81
2023/04/20 04:04:49;;;;;;;;;;;6.20;69.00;;;;;;5028980;28;20015;-83
2023/04/20 04:07:14;;;;;;;;;;;6.20;69.00;;;;;;5045111;28;19917;-80
2023/04/20 04:09:40;;;;;;;;;;;6.20;69.00;;;;;;5042724;28;19924;-82
2023/04/20 04:12:05;;;;;;;;;;;6.20;69.10;;;;;;5047189;28;20015;-81
2023/04/20 04:14:31;;;;;;;;;;;6.20;69.10;;;;;;5029460;28;19928;-83
2023/04/20 04:16:57;;;;;;;;;;;6.20;69.10;;;;;;5044996;28;20588;-81
2023/04/20 04:19:22;;;;;;;;;;;6.20;69.10;;;;;;5050975;28;19916;-81
2023/04/20 04:21:47;;;;;;;;;;;6.10;69.10;;;;;;5045072;28;19971;-81
2023/04/20 04:24:14;;;;;;;;;;;6.20;69.20;;;;;;5039168;28;19940;-81
2023/04/20 04:26:39;;;;;;;;;;;6.20;69.10;;;;;;5009565;28;19920;-81
2023/04/20 04:29:05;;;;;;;;;;;6.20;69.10;;;;;;5028773;28;19921;-81
2023/04/20 04:31:33;;;;;;;;;;;6.20;69.10;;;;;;5022623;28;19924;-82
2023/04/20 04:33:59;;;;;;;;;;;6.20;69.10;;;;;;5046675;28;20415;-81
2023/04/20 04:36:25;;;;;;;;;;;6.20;69.20;;;;;;5024525;28;19920;-81
2023/04/20 04:38:51;;;;;;;;;;;6.20;69.20;;;;;;5044557;28;20568;-81
2023/04/20 04:41:17;;;;;;;;;;;6.20;69.10;;;;;;5026159;28;19928;-82
2023/04/20 04:43:43;;;;;;;;;;;6.20;69.20;;;;;;5020452;28;19917;-81
2023/04/20 04:46:08;;;;;;;;;;;6.20;69.10;;;;;;5013806;28;20041;-83
2023/04/20 04:48:34;;;;;;;;;;;6.20;69.20;;;;;;5024488;28;19917;-82
2023/04/20 04:51:00;;;;;;;;;;;6.20;69.10;;;;;;5044150;28;20426;-81
2023/04/20 04:53:26;;;;;;;;;;;6.20;69.10;;;;;;5042351;28;19925;-81
2023/04/20 04:55:51;;;;;;;;;;;6.20;69.10;;;;;;5008175;28;19932;-80
2023/04/20 04:58:16;;;;;;;;;;;6.30;69.10;;;;;;5029788;28;19917;-82
2023/04/20 05:00:42;;;;;;;;;;;6.30;69.10;;;;;;5025018;28;19917;-81
2023/04/20 05:03:08;;;;;;;;;;;6.30;69.10;;;;;;5029311;28;20505;-82
2023/04/20 05:05:34;;;;;;;;;;;6.30;69.10;;;;;;5049048;28;19917;-81
2023/04/20 05:07:59;;;;;;;;;;;6.40;69.20;;;;;;5047485;28;20019;-81
2023/04/20 05:10:25;;;;;;;;;;;6.40;69.20;;;;;;5026526;28;19916;-82
2023/04/20 05:12:51;;;;;;;;;;;6.40;69.10;;;;;;5027383;28;19921;-81
2023/04/20 05:15:16;;;;;;;;;;;6.40;69.20;;;;;;5026430;28;19921;-81
2023/04/20 05:17:42;;;;;;;;;;;6.40;69.10;;;;;;5037477;28;20542;-82
2023/04/20 05:20:09;;;;;;;;;;;6.40;69.10;;;;;;5025837;28;19955;-82
2023/04/20 05:22:34;;;;;;;;;;;6.40;69.10;;;;;;5021061;28;20441;-80
2023/04/20 05:25:00;;;;;;;;;;;6.40;69.10;;;;;;5023114;28;19921;-81
2023/04/20 05:27:25;;;;;;;;;;;6.50;69.10;;;;;;5019662;28;19921;-82
2023/04/20 05:29:51;;;;;;;;;;;6.50;69.10;;;;;;5005882;28;19928;-82
2023/04/20 05:32:16;;;;;;;;;;;6.50;69.10;;;;;;5026831;28;19935;-82
2023/04/20 05:34:42;;;;;;;;;;;6.50;69.20;;;;;;5027487;28;20312;-82
2023/04/20 05:37:08;;;;;;;;;;;6.50;69.10;;;;;;5050501;28;20095;-81
2023/04/20 05:39:33;;;;;;;;;;;6.60;69.10;;;;;;5039122;28;19920;-82
2023/04/20 05:41:59;;;;;;;;;;;6.60;69.10;;;;;;5045474;28;19923;-83
2023/04/20 05:44:24;;;;;;;;;;;6.60;69.00;;;;;;5033161;28;19921;-81
2023/04/20 05:46:50;;;;;;;;;;;6.60;69.00;;;;;;5041717;28;19924;-82
2023/04/20 05:49:15;;;;;;;;;;;6.70;69.00;;;;;;5024238;28;19923;-81
2023/04/20 05:51:41;;;;;;;;;;;6.70;69.30;;;;;;5037028;28;20314;-82
2023/04/20 05:54:06;;;;;;;;;;;6.70;69.00;;;;;;5022056;28;19924;-82
2023/04/20 05:56:32;;;;;;;;;;;6.70;69.00;;;;;;5009171;28;19973;-82
2023/04/20 05:58:58;;;;;;;;;;;6.80;69.00;;;;;;5042379;28;20591;-82
2023/04/20 06:01:23;;;;;;;;;;;6.80;69.00;;;;;;5020134;28;19916;-81
2023/04/20 06:03:48;;;;;;;;;;;6.80;69.00;;;;;;5023141;28;19996;-82
2023/04/20 06:06:14;;;;;;;;;;;6.80;68.90;;;;;;5038789;28;19913;-81
2023/04/20 06:08:40;;;;;;;;;;;6.90;69.00;;;;;;5036325;28;20455;-84
2023/04/20 06:11:05;;;;;;;;;;;6.90;69.00;;;;;;5026940;28;20004;-82
2023/04/20 06:13:31;;;;;;;;;;;7.00;69.00;;;;;;5043142;28;19927;-82
2023/04/20 06:15:56;;;;;;;;;;;7.00;69.00;;;;;;5044365;28;19939;-81
2023/04/20 06:18:22;;;;;;;;;;;7.00;68.90;;;;;;5028332;28;19917;-83
2023/04/20 06:20:47;;;;;;;;;;;7.10;68.90;;;;;;5031849;28;19913;-82
2023/04/20 06:23:13;;;;;;;;;;;7.20;69.00;;;;;;5031148;28;20019;-81
2023/04/20 06:25:38;;;;;;;;;;;7.20;68.90;;;;;;5034232;28;19963;-82
2023/04/20 06:28:04;;;;;;;;;;;7.40;69.00;;;;;;5047022;28;19969;-82
2023/04/20 06:30:29;;;;;;;;;;;7.50;69.00;;;;;;5030847;28;20297;-82
2023/04/20 06:32:55;;;;;;;;;;;7.60;68.90;;;;;;5029428;28;19975;-81
2023/04/20 06:35:22;;;;;;;;;;;7.70;68.70;;;;;;5028400;28;19921;-81
2023/04/20 06:37:47;;;;;;;;;;;7.80;68.70;;;;;;5046541;28;19925;-82
2023/04/20 06:40:13;;;;;;;;;;;7.90;68.60;;;;;;5012415;28;20312;-84
2023/04/20 06:42:38;;;;;;;;;;;8.00;68.50;;;;;;5025799;28;20391;-82
2023/04/20 06:45:05;;;;;;;;;;;8.10;68.50;;;;;;5045796;28;19917;-82
2023/04/20 06:47:31;;;;;;;;;;;8.20;68.50;;;;;;5028301;28;19925;-81
2023/04/20 06:49:57;;;;;;;;;;;8.30;68.30;;;;;;5041682;28;19927;-82
2023/04/20 06:52:22;;;;;;;;;;;8.50;68.30;;;;;;5027083;28;19964;-82
2023/04/20 06:54:48;;;;;;;;;;;8.60;68.20;;;;;;5041647;28;19963;-81
2023/04/20 06:57:13;;;;;;;;;;;8.70;68.10;;;;;;5029117;28;19925;-82
2023/04/20 06:59:39;;;;;;;;;;;8.80;68.00;;;;;;5009086;28;19923;-83
2023/04/20 07:02:04;;;;;;;;;;;8.90;68.00;;;;;;5025592;28;19913;-81
2023/04/20 07:04:30;;;;;;;;;;;9.00;67.90;;;;;;5028339;28;19913;-82
2023/04/20 07:06:55;;;;;;;;;;;9.10;67.80;;;;;;5029850;28;19923;-82
2023/04/20 07:09:21;;;;;;;;;;;9.20;67.70;;;;;;5020985;28;20420;-82
2023/04/20 07:11:47;;;;;;;;;;;9.20;67.60;;;;;;5048543;28;19928;-82
2023/04/20 07:14:13;;;;;;;;;;;9.30;67.60;;;;;;5044086;28;19920;-81
2023/04/20 07:16:38;;;;;;;;;;;9.30;67.60;;;;;;5026221;28;19965;-82
2023/04/20 07:19:04;;;;;;;;;;;9.40;67.60;;;;;;5011776;28;19963;-81
2023/04/20 07:21:30;;;;;;;;;;;9.50;67.60;;;;;;5027205;28;19971;-82
2023/04/20 07:23:57;;;;;;;;;;;9.60;67.60;;;;;;5029009;28;19916;-83
2023/04/20 07:26:26;;;;;;;;;;;9.60;67.40;;;;;;5046785;28;20353;-82
2023/04/20 07:28:51;;;;;;;;;;;9.70;67.40;;;;;;5047351;28;19925;-81
2023/04/20 07:31:17;;;;;;;;;;;9.80;67.30;;;;;;5028751;28;20373;-82
2023/04/20 07:33:43;;;;;;;;;;;9.80;67.20;;;;;;5024571;28;20416;-82
2023/04/20 07:36:08;;;;;;;;;;;9.90;67.20;;;;;;5019819;28;19925;-82
2023/04/20 07:38:33;;;;;;;;;;;9.90;67.20;;;;;;5042289;28;20016;-82
2023/04/20 07:40:59;;;;;;;;;;;10.10;67.30;;;;;;5043809;28;19927;-83
2023/04/20 07:43:25;;;;;;;;;;;10.20;67.30;;;;;;5028935;28;20457;-82
2023/04/20 07:48:54;;;;;;;;;;;10.60;67.20;;;;;;5044888;28;19931;-81
2023/04/20 07:51:20;;;;;;;;;;;10.80;66.80;;;;;;5042651;28;20387;-81
2023/04/20 07:53:45;;;;;;;;;;;10.90;66.70;;;;;;5043441;28;19936;-81
2023/04/20 07:56:11;;;;;;;;;;;11.10;66.60;;;;;;5025904;28;19967;-82
2023/04/20 07:58:39;;;;;;;;;;;11.30;66.50;;;;;;5027263;28;19917;-81
2023/04/20 08:01:04;;;;;;;;;;;11.40;66.30;;;;;;5026386;28;19916;-82
2023/04/20 08:03:30;;;;;;;;;;;11.50;66.10;;;;;;5044355;28;19974;-81
2023/04/20 08:05:55;;;;;;;;;;;11.60;66.00;;;;;;5048104;28;19986;-82
2023/04/20 08:08:21;;;;;;;;;;;11.70;65.90;;;;;;5032932;28;19924;-81
2023/04/20 08:10:46;;;;;;;;;;;11.70;65.80;;;;;;5027925;28;19921;-81
2023/04/20 08:13:12;;;;;;;;;;;11.80;65.90;;;;;;5014496;28;20388;-81
2023/04/20 08:15:37;;;;;;;;;;;11.90;65.90;;;;;;5011465;28;20015;-82
2023/04/20 08:18:03;;;;;;;;;;;12.10;65.80;;;;;;5042904;28;19932;-82
2023/04/20 08:20:28;;;;;;;;;;;12.30;65.70;;;;;;5041202;28;19921;-82
2023/04/20 08:22:53;;;;;;;;;;;12.50;65.60;;;;;;5023913;28;19933;-82
2023/04/20 08:25:19;;;;;;;;;;;12.60;65.40;;;;;;5046444;28;20065;-81
2023/04/20 08:27:45;;;;;;;;;;;12.80;65.30;;;;;;5022823;28;19921;-81
2023/04/20 08:30:10;;;;;;;;;;;13.00;65.20;;;;;;5033722;28;20506;-81
2023/04/20 08:32:36;;;;;;;;;;;13.10;64.90;;;;;;5018087;28;19928;-82
2023/04/20 08:35:03;;;;;;;;;;;13.30;64.80;;;;;;5028896;28;19921;-81
2023/04/20 08:37:28;;;;;;;;;;;13.40;64.70;;;;;;5025957;28;19920;-82
2023/04/20 08:39:53;;;;;;;;;;;13.50;64.60;;;;;;5019534;28;19930;-83
2023/04/20 08:42:19;;;;;;;;;;;13.60;64.50;;;;;;5005195;28;19917;-81
2023/04/20 08:44:45;;;;;;;;;;;13.80;64.50;;;;;;5027598;28;20409;-81
2023/04/20 08:47:10;;;;;;;;;;;13.90;65.00;;;;;;5037566;28;19920;-82
2023/04/20 08:49:38;;;;;;;;;;;14.00;64.20;;;;;;5044793;28;19925;-82
2023/04/20 08:52:03;;;;;;;;;;;14.20;64.20;;;;;;5025367;28;19917;-81
2023/04/20 08:54:29;;;;;;;;;;;14.40;64.00;;;;;;5024885;28;19924;-82
2023/04/20 08:56:55;;;;;;;;;;;14.50;63.80;;;;;;5042502;28;20290;-82
2023/04/20 08:59:21;;;;;;;;;;;14.70;63.60;;;;;;5039341;28;19916;-81
2023/04/20 09:01:46;;;;;;;;;;;14.80;63.50;;;;;;5024884;28;19920;-82
2023/04/20 09:04:18;;;;;;;;;;;14.80;63.30;;;;;;5020319;28;19955;-81
2023/04/20 09:06:44;;;;;;;;;;;14.80;63.40;;;;;;5024881;28;19924;-81
2023/04/20 09:09:10;;;;;;;;;;;15.00;63.50;;;;;;5042036;28;19916;-82
2023/04/20 09:11:36;;;;;;;;;;;15.00;63.30;;;;;;5023554;28;19924;-82
2023/04/20 09:14:14;;;;;;;;;;;15.20;63.30;;;;;;5026062;28;19920;-81
2023/04/20 09:16:59;;;;;;;;;;;15.20;63.00;;;;;;5040903;28;19929;-81
2023/04/20 09:19:25;;;;;;;;;;;15.30;63.00;;;;;;5024373;28;19921;-82
2023/04/20 09:21:51;;;;;;;;;;;15.30;62.90;;;;;;5023533;28;19924;-81
2023/04/20 09:24:18;;;;;;;;;;;15.30;62.90;;;;;;5029539;28;19924;-81
2023/04/20 09:26:43;;;;;;;;;;;15.20;62.90;;;;;;5029075;28;19920;-81
2023/04/20 09:29:18;;;;;;;;;;;15.20;63.00;;;;;;5038982;28;19920;-81
2023/04/20 09:31:44;;;;;;;;;;;15.30;63.00;;;;;;5025807;28;19928;-82
2023/04/20 09:34:13;;;;;;;;;;;15.40;63.00;;;;;;5028534;28;20029;-82
2023/04/20 09:36:42;;;;;;;;;;;15.40;62.90;;;;;;5024645;28;20698;-82
2023/04/20 09:39:14;;;;;;;;;;;15.50;63.00;;;;;;5024300;28;19917;-83
2023/04/20 09:41:40;;;;;;;;;;;15.50;63.00;;;;;;5024584;28;20401;-82
2023/04/20 09:44:05;;;;;;;;;;;15.70;62.90;;;;;;5000754;28;19921;-82
2023/04/20 09:46:31;;;;;;;;;;;15.70;62.70;;;;;;5008370;28;19924;-83
2023/04/20 09:48:58;;;;;;;;;;;15.80;62.60;;;;;;5021844;28;20393;-82
2023/04/20 09:51:25;;;;;;;;;;;15.90;62.50;;;;;;5024355;28;20047;-82
2023/04/20 09:53:50;;;;;;;;;;;15.90;62.50;;;;;;5039130;28;19932;-82
2023/04/20 09:56:15;;;;;;;;;;;16.00;62.50;;;;;;5039481;28;19925;-83
2023/04/20 09:58:41;;;;;;;;;;;16.10;62.40;;;;;;5009772;28;19925;-82
2023/04/20 10:01:10;;;;;;;;;;;16.20;62.20;;;;;;5025269;28;20086;-82
2023/04/20 10:03:35;;;;;;;;;;;16.30;62.10;;;;;;5022988;28;20509;-82
2023/04/20 10:06:01;;;;;;;;;;;16.20;62.00;;;;;;5026017;28;19924;-82
2023/04/20 10:08:26;;;;;;;;;;;16.20;62.00;;;;;;5006690;28;19924;-82
2023/04/20 10:10:52;;;;;;;;;;;16.10;62.00;;;;;;5015196;28;19921;-82
2023/04/20 10:13:22;;;;;;;;;;;16.20;62.20;;;;;;5021481;28;19917;-83
2023/04/20 10:15:47;;;;;;;;;;;16.20;62.20;;;;;;5000310;28;20482;-83
2023/04/20 10:18:23;;;;;;;;;;;16.30;62.20;;;;;;5029351;28;19932;-82
2023/04/20 10:20:48;;;;;;;;;;;16.30;62.00;;;;;;5024679;28;19996;-82
2023/04/20 10:23:14;;;;;;;;;;;16.30;61.90;;;;;;5025529;28;19924;-82
2023/04/20 10:25:40;;;;;;;;;;;16.40;62.00;;;;;;5018711;28;19929;-83
2023/04/20 10:28:09;;;;;;;;;;;16.50;62.00;;;;;;5023052;28;19925;-82
2023/04/20 10:30:35;;;;;;;;;;;16.70;61.80;;;;;;5038809;28;19924;-82
2023/04/20 10:33:04;;;;;;;;;;;16.70;61.60;;;;;;5020027;28;19925;-83
2023/04/20 10:35:39;;;;;;;;;;;16.70;61.60;;;;;;5041833;28;20602;-82
2023/04/20 10:38:05;;;;;;;;;;;16.60;61.40;;;;;;5025785;28;20461;-81
2023/04/20 10:40:30;;;;;;;;;;;16.70;61.50;;;;;;5043205;28;19920;-84
2023/04/20 10:42:56;;;;;;;;;;;16.80;61.60;;;;;;5024628;28;20315;-82
2023/04/20 10:45:21;;;;;;;;;;;17.00;61.60;;;;;;5030821;28;19948;-82
2023/04/20 10:47:49;;;;;;;;;;;17.30;61.30;;;;;;5014284;28;19920;-83
2023/04/20 10:50:15;;;;;;;;;;;17.30;61.00;;;;;;5024877;28;19993;-82
2023/04/20 10:52:41;;;;;;;;;;;17.30;60.90;;;;;;5019501;28;20402;-82
2023/04/20 10:55:16;;;;;;;;;;;17.30;60.90;;;;;;5000124;28;19925;-80
2023/04/20 10:57:45;;;;;;;;;;;17.20;60.90;;;;;;5017588;28;19984;-82
2023/04/20 11:00:16;;;;;;;;;;;17.20;61.00;;;;;;5000582;28;19917;-83
2023/04/20 11:02:49;;;;;;;;;;;17.30;61.10;;;;;;5023031;28;19970;-82
2023/04/20 11:05:14;;;;;;;;;;;17.40;61.00;;;;;;5008299;28;19978;-82
2023/04/20 11:07:46;;;;;;;;;;;17.40;60.90;;;;;;5004551;28;19929;-82
2023/04/20 11:10:12;;;;;;;;;;;17.40;60.80;;;;;;5034706;23;19973;-78
2023/04/20 11:12:38;;;;;;;;;;;17.40;60.70;;;;;;5049612;28;19987;-78
2023/04/20 11:15:04;;;;;;;;;;;17.20;60.80;;;;;;5002294;28;20708;-78
2023/04/20 11:17:33;;;;;;;;;;;17.10;61.00;;;;;;5037101;28;19925;-77
2023/04/20 11:20:09;;;;;;;;;;;17.10;61.10;;;;;;5047837;28;19921;-78
2023/04/20 11:22:35;;;;;;;;;;;17.10;61.10;;;;;;5032990;28;19964;-77
2023/04/20 11:25:04;;;;;;;;;;;17.00;61.20;;;;;;5020256;28;20058;-77
2023/04/20 11:27:30;;;;;;;;;;;16.90;61.10;;;;;;5016585;28;20605;-78
2023/04/20 11:29:57;;;;;;;;;;;16.90;61.10;;;;;;5001674;28;19925;-77
2023/04/20 11:32:22;;;;;;;;;;;16.90;61.10;;;;;;5038231;28;19920;-77
2023/04/20 11:34:48;;;;;;;;;;;16.90;61.10;;;;;;5015615;28;19948;-78
2023/04/20 11:37:13;;;;;;;;;;;16.90;61.10;;;;;;5019466;28;19929;-78
2023/04/20 11:39:39;;;;;;;;;;;16.90;61.20;;;;;;5018427;28;20473;-77
2023/04/20 11:42:04;;;;;;;;;;;16.90;61.20;;;;;;5015635;28;19936;-78
2023/04/20 11:44:30;;;;;;;;;;;16.90;61.10;;;;;;5005934;28;19917;-77
2023/04/20 11:46:58;;;;;;;;;;;16.90;61.10;;;;;;5014625;28;20290;-76
2023/04/20 11:49:24;;;;;;;;;;;16.90;61.10;;;;;;5015323;28;19920;-78
2023/04/20 11:51:50;;;;;;;;;;;16.80;60.90;;;;;;5032539;28;20467;-77
2023/04/20 11:54:15;;;;;;;;;;;16.80;61.00;;;;;;5002850;28;19952;-78
2023/04/20 11:56:41;;;;;;;;;;;16.70;61.00;;;;;;5002975;28;19925;-78
2023/04/20 11:59:07;;;;;;;;;;;16.70;61.00;;;;;;5031951;28;19943;-77
2023/04/20 12:01:32;;;;;;;;;;;16.70;61.00;;;;;;5019290;28;19960;-77
2023/04/20 12:04:00;;;;;;;;;;;16.70;61.10;;;;;;5033136;28;19920;-77
2023/04/20 12:06:26;;;;;;;;;;;16.70;61.10;;;;;;5018307;28;19921;-78
2023/04/20 12:08:51;;;;;;;;;;;16.70;61.00;;;;;;5033057;28;19940;-77
2023/04/20 12:11:17;;;;;;;;;;;16.70;61.10;;;;;;5011768;28;20511;-77
2023/04/20 12:13:42;;;;;;;;;;;16.60;61.00;;;;;;4998941;28;19932;-77
2023/04/20 12:16:08;;;;;;;;;;;16.60;61.00;;;;;;5015116;28;19931;-77
2023/04/20 12:18:33;;;;;;;;;;;16.70;61.00;;;;;;5026799;28;19925;-78
2023/04/20 12:20:59;;;;;;;;;;;16.60;60.80;;;;;;4993781;28;19921;-78
2023/04/20 12:23:25;;;;;;;;;;;16.60;60.90;;;;;;5013617;28;20553;-78
2023/04/20 12:25:50;;;;;;;;;;;16.50;60.90;;;;;;5011845;28;20470;-78
2023/04/20 12:28:16;;;;;;;;;;;16.50;60.90;;;;;;5015290;28;20068;-77
2023/04/20 12:30:41;;;;;;;;;;;16.50;60.90;;;;;;5008894;28;19956;-78
2023/04/20 12:33:07;;;;;;;;;;;16.50;60.90;;;;;;5012626;28;19928;-77
2023/04/20 12:35:32;;;;;;;;;;;16.40;60.90;;;;;;5014023;28;19948;-78
2023/04/20 12:37:58;;;;;;;;;;;16.40;61.00;;;;;;5012990;28;19932;-78
2023/04/20 12:40:23;;;;;;;;;;;16.30;60.90;;;;;;5012818;28;19926;-77
2023/04/20 12:42:49;;;;;;;;;;;16.30;60.90;;;;;;5012234;28;19983;-77
2023/04/20 12:45:14;;;;;;;;;;;16.20;60.90;;;;;;5012967;28;20450;-78
2023/04/20 12:47:40;;;;;;;;;;;16.10;60.90;;;;;;5006884;28;19928;-78
2023/04/20 12:50:06;;;;;;;;;;;16.00;61.10;;;;;;5010442;28;20648;-78
2023/04/20 12:52:32;;;;;;;;;;;15.90;61.10;;;;;;5012519;28;19922;-77
2023/04/20 12:54:57;;;;;;;;;;;15.90;61.20;;;;;;5026441;28;19921;-78
2023/04/20 12:57:23;;;;;;;;;;;15.80;61.20;;;;;;5015309;28;19976;-78
2023/04/20 12:59:48;;;;;;;;;;;15.80;61.10;;;;;;4998259;28;19987;-77
2023/04/20 13:02:14;;;;;;;;;;;15.80;61.20;;;;;;5014961;28;20000;-77
2023/04/20 13:04:39;;;;;;;;;;;15.70;61.20;;;;;;5012958;28;20318;-77
2023/04/20 13:07:05;;;;;;;;;;;15.60;61.20;;;;;;5014616;28;20008;-78
2023/04/20 13:09:31;;;;;;;;;;;15.60;61.30;;;;;;5014052;28;19990;-77
2023/04/20 13:11:56;;;;;;;;;;;15.50;61.30;;;;;;5010045;28;19929;-77
2023/04/20 13:14:22;;;;;;;;;;;15.40;61.40;;;;;;5010284;28;20000;-77
2023/04/20 13:16:47;;;;;;;;;;;15.40;61.50;;;;;;4983689;28;19922;-77
2023/04/20 13:19:13;;;;;;;;;;;15.30;61.50;;;;;;4999764;28;20855;-78
2023/04/20 13:21:38;;;;;;;;;;;15.30;61.50;;;;;;4996364;28;20299;-77
2023/04/20 13:24:04;;;;;;;;;;;15.10;61.40;;;;;;4995940;28;19937;-78
2023/04/20 13:26:30;;;;;;;;;;;15.00;61.40;;;;;;4993526;28;19925;-77
2023/04/20 13:28:57;;;;;;;;;;;14.90;61.50;;;;;;5012148;28;20584;-78
2023/04/20 13:31:23;;;;;;;;;;;14.80;61.60;;;;;;4976480;28;19925;-77
2023/04/20 13:33:53;;;;;;;;;;;14.80;61.90;;;;;;4993666;28;19933;-77
2023/04/20 13:36:19;;;;;;;;;;;14.60;61.80;;;;;;5010021;28;19918;-76
2023/04/20 13:38:46;;;;;;;;;;;14.60;62.00;;;;;;4994905;28;19932;-78
2023/04/20 13:41:11;;;;;;;;;;;14.50;62.00;;;;;;4994698;28;19917;-79
2023/04/20 13:43:37;;;;;;;;;;;14.50;62.10;;;;;;4993912;28;19917;-78
2023/04/20 13:46:02;;;;;;;;;;;14.50;62.20;;;;;;5012254;28;20399;-77
2023/04/20 13:48:28;;;;;;;;;;;14.40;62.20;;;;;;4992828;28;20008;-78
2023/04/20 13:50:53;;;;;;;;;;;14.40;62.20;;;;;;4989658;28;19941;-77
2023/04/20 13:53:19;;;;;;;;;;;14.30;62.20;;;;;;4998093;28;19944;-77
2023/04/20 13:55:44;;;;;;;;;;;14.20;62.30;;;;;;4995013;28;19959;-77
2023/04/20 13:58:10;;;;;;;;;;;14.20;62.30;;;;;;5013235;28;19921;-77
2023/04/20 14:00:35;;;;;;;;;;;14.20;62.40;;;;;;4977983;28;20743;-77
2023/04/20 14:03:01;;;;;;;;;;;14.20;62.40;;;;;;5014133;28;19925;-77
2023/04/20 14:05:27;;;;;;;;;;;14.10;62.30;;;;;;5008751;28;19952;-78
2023/04/20 14:07:53;;;;;;;;;;;14.10;62.60;;;;;;4994306;28;20587;-77
2023/04/20 14:10:18;;;;;;;;;;;14.10;62.40;;;;;;5000230;28;19937;-77
2023/04/20 14:12:44;;;;;;;;;;;14.10;62.50;;;;;;5028067;28;20431;-78
2023/04/20 14:15:10;;;;;;;;;;;14.00;62.50;;;;;;5031448;28;19920;-77
2023/04/20 14:17:35;;;;;;;;;;;14.00;62.50;;;;;;5013326;28;19924;-77
2023/04/20 14:20:01;;;;;;;;;;;13.90;62.40;;;;;;5012538;28;19960;-78